createdAt,value
2024-03-27T00:00:50.294Z,3.40
2024-03-27T00:06:25.494Z,3.10
2024-03-27T00:11:41.171Z,3.10
2024-03-27T00:16:49.726Z,3.20
2024-03-27T00:22:00.541Z,3.00
2024-03-27T00:27:19.035Z,3.50
2024-03-27T00:32:27.061Z,3.00
2024-03-27T00:37:40.575Z,3.30
2024-03-27T00:43:06.835Z,3.00
2024-03-27T00:48:12.147Z,3.00
2024-03-27T00:53:20.415Z,3.90
2024-03-27T00:58:38.810Z,3.10
2024-03-27T01:03:54.963Z,3.90
2024-03-27T01:09:20.236Z,2.80
2024-03-27T01:14:45.846Z,4.00
2024-03-27T01:19:53.336Z,3.80
2024-03-27T01:25:12.498Z,3.50
2024-03-27T01:30:37.989Z,3.60
2024-03-27T01:35:50.224Z,3.40
2024-03-27T01:40:58.090Z,3.00
2024-03-27T01:46:10.197Z,3.50
2024-03-27T01:56:34.950Z,3.30
2024-03-27T02:02:00.727Z,3.10
2024-03-27T02:07:09.425Z,3.40
2024-03-27T02:12:19.620Z,3.50
2024-03-27T02:17:26.962Z,3.40
2024-03-27T02:22:40.858Z,3.40
2024-03-27T02:27:48.916Z,3.40
2024-03-27T02:33:14.317Z,3.60
2024-03-27T02:38:29.430Z,3.20
2024-03-27T02:43:36.845Z,4.20
2024-03-27T02:48:51.956Z,3.60
2024-03-27T02:54:17.199Z,3.50
2024-03-27T02:59:25.276Z,3.70
2024-03-27T03:04:40.462Z,4.30
2024-03-27T03:09:59.454Z,3.70
2024-03-27T03:15:17.694Z,3.00
2024-03-27T03:20:42.927Z,3.50
2024-03-27T03:25:58.280Z,3.60
2024-03-27T03:31:09.109Z,4.00
2024-03-27T03:36:24.217Z,3.50
2024-03-27T03:41:49.551Z,3.30
2024-03-27T03:47:04.737Z,4.10
2024-03-27T03:52:28.357Z,3.70
2024-03-27T03:57:53.569Z,3.70
2024-03-27T04:03:18.791Z,3.70
2024-03-27T04:08:36.841Z,3.70
2024-03-27T04:14:02.053Z,4.00
2024-03-27T04:19:27.339Z,3.70
2024-03-27T04:24:52.561Z,4.60
2024-03-27T04:30:05.791Z,3.60
2024-03-27T04:35:25.479Z,4.40
2024-03-27T04:40:51.068Z,3.70
2024-03-27T04:46:16.297Z,3.70
2024-03-27T04:51:34.002Z,3.90
2024-03-27T04:56:50.074Z,3.90
2024-03-27T05:01:55.190Z,3.50
2024-03-27T05:07:05.566Z,3.40
2024-03-27T05:12:31.036Z,3.60
2024-03-27T05:17:39.041Z,4.20
2024-03-27T05:22:47.432Z,3.70
2024-03-27T05:28:01.828Z,3.90
2024-03-27T05:33:19.492Z,4.00
2024-03-27T05:38:44.756Z,4.20
2024-03-27T05:43:49.922Z,3.80
2024-03-27T05:49:17.740Z,3.80
2024-03-27T05:54:42.978Z,3.90
2024-03-27T06:00:08.224Z,4.10
2024-03-27T06:05:33.608Z,3.50
2024-03-27T06:10:58.832Z,3.90
2024-03-27T06:16:17.106Z,4.00
2024-03-27T06:21:42.380Z,4.10
2024-03-27T06:27:07.626Z,4.60
2024-03-27T06:32:33.224Z,3.70
2024-03-27T06:37:58.611Z,3.90
2024-03-27T06:43:24.017Z,3.90
2024-03-27T06:48:49.322Z,3.50
2024-03-27T06:54:14.621Z,3.30
2024-03-27T06:59:32.600Z,3.30
2024-03-27T07:04:58.181Z,3.00
2024-03-27T07:10:08.399Z,2.90
2024-03-27T07:15:34.028Z,3.00
2024-03-27T07:20:59.276Z,2.70
2024-03-27T07:26:30.009Z,2.80
2024-03-27T07:31:55.453Z,2.70
2024-03-27T07:37:20.769Z,2.60
2024-03-27T07:42:26.055Z,3.20
2024-03-27T07:47:41.266Z,2.50
2024-03-27T07:53:06.571Z,2.40
2024-03-27T07:58:16.448Z,2.20
2024-03-27T08:03:31.686Z,2.50
2024-03-27T08:08:57.101Z,5.10
2024-03-27T08:14:26.465Z,2.60
2024-03-27T08:19:41.563Z,2.60
2024-03-27T08:24:46.829Z,3.00
2024-03-27T08:30:12.134Z,2.50
2024-03-27T08:35:37.732Z,2.40
2024-03-27T08:40:56.927Z,2.50
2024-03-27T08:46:23.241Z,2.30
2024-03-27T08:51:40.270Z,2.50
2024-03-27T08:56:48.604Z,2.00
2024-03-27T09:02:13.840Z,2.80
2024-03-27T09:07:37.763Z,2.40
2024-03-27T09:13:03.137Z,2.20
2024-03-27T09:18:18.563Z,2.40
2024-03-27T09:23:27.638Z,2.40
2024-03-27T09:28:43.344Z,2.50
2024-03-27T09:33:51.502Z,1.90
2024-03-27T09:39:01.695Z,2.90
2024-03-27T09:44:31.823Z,2.10
2024-03-27T09:49:44.451Z,2.00
2024-03-27T09:54:53.034Z,2.10
2024-03-27T10:00:18.334Z,2.00
2024-03-27T10:05:47.067Z,2.60
2024-03-27T10:10:57.978Z,2.10
2024-03-27T10:16:06.896Z,2.20
2024-03-27T10:21:17.267Z,1.80
2024-03-27T10:26:25.368Z,1.90
2024-03-27T10:31:35.373Z,2.00
2024-03-27T10:36:42.851Z,1.90
2024-03-27T10:41:50.975Z,1.60
2024-03-27T10:47:16.250Z,1.90
2024-03-27T10:52:42.972Z,1.90
2024-03-27T10:58:08.451Z,2.10
2024-03-27T11:03:36.944Z,2.00
2024-03-27T11:09:05.440Z,1.70
2024-03-27T11:14:38.097Z,2.00
2024-03-27T11:20:05.093Z,2.30
2024-03-27T11:25:33.550Z,1.80
2024-03-27T11:31:01.172Z,1.70
2024-03-27T11:36:27.181Z,1.60
2024-03-27T11:41:52.471Z,1.70
2024-03-27T11:47:17.801Z,1.70
2024-03-27T11:52:43.543Z,1.80
2024-03-27T11:57:48.983Z,1.80
2024-03-27T12:03:14.569Z,1.90
2024-03-27T12:08:40.049Z,2.20
2024-03-27T12:14:05.504Z,1.60
2024-03-27T12:19:30.873Z,1.70
2024-03-27T12:24:55.882Z,1.60
2024-03-27T12:30:21.792Z,2.00
2024-03-27T12:35:39.435Z,2.00
2024-03-27T12:40:57.176Z,1.60
2024-03-27T12:46:22.718Z,1.70
2024-03-27T12:51:47.960Z,1.60
2024-03-27T12:57:14.464Z,1.50
2024-03-27T13:02:39.741Z,1.50
2024-03-27T13:07:44.998Z,1.60
2024-03-27T13:13:10.630Z,2.00
2024-03-27T13:18:28.545Z,2.10
2024-03-27T13:23:37.723Z,1.80
2024-03-27T13:29:02.981Z,1.50
2024-03-27T13:34:10.666Z,1.60
2024-03-27T13:39:36.024Z,1.70
2024-03-27T13:44:41.320Z,1.60
2024-03-27T13:50:06.563Z,1.70
2024-03-27T13:55:12.135Z,1.50
2024-03-27T14:00:38.192Z,1.30
2024-03-27T14:06:03.433Z,1.60
2024-03-27T14:11:28.898Z,1.50
2024-03-27T14:16:54.463Z,1.50
2024-03-27T14:22:12.481Z,1.40
2024-03-27T14:27:20.097Z,1.60
2024-03-27T14:32:45.429Z,1.70
2024-03-27T14:37:53.008Z,1.50
2024-03-27T14:42:58.275Z,1.80
2024-03-27T14:48:05.813Z,1.40
2024-03-27T14:53:10.928Z,1.40
2024-03-27T14:58:29.224Z,2.00
2024-03-27T15:03:54.709Z,1.70
2024-03-27T15:08:59.924Z,1.70
2024-03-27T15:14:05.154Z,1.80
2024-03-27T15:19:13.371Z,2.20
2024-03-27T15:24:21.178Z,1.60
2024-03-27T15:29:26.478Z,1.90
2024-03-27T15:34:53.080Z,1.80
2024-03-27T15:40:01.361Z,1.70
2024-03-27T15:45:10.175Z,1.90
2024-03-27T15:50:28.614Z,1.80
2024-03-27T15:55:44.902Z,1.70
2024-03-27T16:01:01.379Z,2.00
2024-03-27T16:06:10.067Z,2.10
2024-03-27T16:11:35.329Z,2.00
2024-03-27T16:16:43.024Z,2.00
2024-03-27T16:21:50.601Z,2.00
2024-03-27T16:26:58.261Z,2.10
2024-03-27T16:32:07.100Z,1.80
2024-03-27T16:37:15.584Z,2.00
2024-03-27T16:42:23.561Z,1.80
2024-03-27T16:47:48.811Z,1.80
2024-03-27T16:52:56.100Z,2.10
2024-03-27T16:58:21.363Z,2.10
2024-03-27T17:03:28.474Z,5.60
2024-03-27T17:08:36.191Z,2.20
2024-03-27T17:13:50.198Z,2.00
2024-03-27T17:19:15.467Z,1.80
2024-03-27T17:24:41.405Z,2.70
2024-03-27T17:29:49.514Z,2.20
2024-03-27T17:35:14.913Z,1.90
2024-03-27T17:40:20.351Z,1.60
2024-03-27T17:45:45.640Z,1.80
2024-03-27T17:51:10.848Z,1.90
2024-03-27T17:56:36.150Z,1.80
2024-03-27T18:02:01.479Z,2.00
2024-03-27T18:07:27.010Z,2.20
2024-03-27T18:12:44.844Z,2.10
2024-03-27T18:18:10.067Z,2.10
2024-03-27T18:23:35.307Z,2.00
2024-03-27T18:29:00.707Z,2.00
2024-03-27T18:34:25.961Z,2.50
2024-03-27T18:39:51.759Z,2.60
2024-03-27T18:45:20.795Z,2.80
2024-03-27T18:50:29.726Z,3.20
2024-03-27T18:55:55.905Z,4.00
2024-03-27T19:01:21.762Z,3.60
2024-03-27T19:06:47.831Z,4.90
2024-03-27T19:12:13.139Z,4.30
2024-03-27T19:17:38.648Z,4.30
2024-03-27T19:23:03.953Z,5.20
2024-03-27T19:28:14.655Z,5.10
2024-03-27T19:33:29.123Z,4.70
2024-03-27T19:38:55.148Z,4.90
2024-03-27T19:44:11.379Z,4.90
2024-03-27T19:49:36.669Z,5.60
2024-03-27T19:55:02.014Z,4.70
2024-03-27T20:00:29.361Z,5.60
2024-03-27T20:05:54.974Z,4.50
2024-03-27T20:11:21.710Z,4.90
2024-03-27T20:16:47.302Z,5.10
2024-03-27T20:22:12.631Z,5.40
2024-03-27T20:27:18.986Z,5.20
2024-03-27T20:32:45.419Z,5.30
2024-03-27T20:38:00.420Z,6.10
2024-03-27T20:43:06.543Z,6.10
2024-03-27T20:48:32.667Z,5.60
2024-03-27T20:53:57.863Z,5.20
2024-03-27T20:59:23.141Z,6.00
2024-03-27T21:04:48.403Z,5.50
2024-03-27T21:10:17.160Z,5.60
2024-03-27T21:15:33.024Z,5.00
2024-03-27T21:20:59.017Z,5.10
2024-03-27T21:26:06.705Z,5.10
2024-03-27T21:31:21.355Z,4.70
2024-03-27T21:36:46.700Z,5.10
2024-03-27T21:41:55.009Z,5.10
2024-03-27T21:47:00.075Z,5.10
2024-03-27T21:52:25.627Z,5.30
2024-03-27T21:57:50.920Z,4.70
2024-03-27T22:03:07.704Z,4.60
2024-03-27T22:08:32.993Z,4.90
2024-03-27T22:13:58.277Z,6.00
2024-03-27T22:19:23.553Z,5.10
2024-03-27T22:24:48.801Z,5.10
2024-03-27T22:30:14.060Z,4.90
2024-03-27T22:35:29.564Z,5.10
2024-03-27T22:40:47.530Z,5.00
2024-03-27T22:46:00.143Z,5.50
2024-03-27T22:51:09.131Z,5.20
2024-03-27T22:56:39.919Z,6.60
2024-03-27T23:02:01.690Z,6.70
2024-03-27T23:07:20.351Z,6.10
2024-03-27T23:12:44.313Z,7.40
2024-03-27T23:18:09.585Z,6.70
2024-03-27T23:23:17.706Z,7.50
2024-03-27T23:28:43.011Z,7.00
2024-03-27T23:34:00.967Z,6.70
2024-03-27T23:39:26.341Z,6.10
2024-03-27T23:44:51.599Z,6.70
2024-03-27T23:50:16.912Z,6.70
2024-03-27T23:55:42.170Z,6.50
